Terminal Aerodrome Forecast
Issued by NWS Pittsburgh, PA

Current Version | Previous Version | Graphics & Text | Print | Product List | Glossary On
Versions: 1 2 3 4 5 6 7 8 9 10 11 12 13 14 15 16 17 18 19 20 21 22 23 24 25 26 27 28 29 30 31 32 33 34 35 36
000
FTUS41 KPBZ 141700
TAFPIT
TAF
KPIT 141720Z 1418/1524 21015G30KT P6SM -SHRA BKN035 OVC140
     FM150300 25012KT 3SM -RA OVC012
     FM150900 30012KT 3SM -SHRA OVC010
     FM151600 33015G25KT 3SM -SHSN OVC010=

USA.gov is the U.S. government's official web portal to all federal, state and local government web resources and services.